Time;durP1;ratioP1;P1;durP2;ratioP2;P2;SDS_P1;SDS_P2;PMS_P1;PMS_P2;Temp;Humidity;BMP_temperature;BMP_pressure;BME280_temperature;BME280_humidity;BME280_pressure;Samples;Min_cycle;Max_cycle;Signal;HPM_P1;HPM_P2
2023/07/18 00:00:13;;;;;;;8.25;2.42;;;17.40;99.90;;;;;;5122665;27;20054;-70
2023/07/18 00:02:39;;;;;;;13.20;2.40;;;17.40;99.90;;;;;;5136311;27;20039;-70
2023/07/18 00:05:06;;;;;;;13.00;2.35;;;17.40;99.90;;;;;;5108375;27;20072;-70
2023/07/18 00:07:31;;;;;;;9.70;2.38;;;17.50;99.90;;;;;;5132316;27;20459;-70
2023/07/18 00:09:57;;;;;;;9.18;2.00;;;17.40;99.90;;;;;;5134648;27;20026;-70
2023/07/18 00:12:23;;;;;;;11.60;2.33;;;17.40;99.90;;;;;;5136171;27;20023;-70
2023/07/18 00:14:49;;;;;;;10.27;2.30;;;17.40;99.90;;;;;;5135906;27;20390;-71
2023/07/18 00:17:15;;;;;;;13.65;2.25;;;17.40;99.90;;;;;;5136120;27;20098;-70
2023/07/18 00:19:41;;;;;;;13.45;2.03;;;17.40;99.90;;;;;;5133101;27;20022;-70
2023/07/18 00:22:07;;;;;;;11.95;1.92;;;17.40;99.90;;;;;;5135928;27;20019;-71
2023/07/18 00:24:33;;;;;;;7.13;1.80;;;17.40;99.90;;;;;;5132562;27;20029;-71
2023/07/18 00:26:59;;;;;;;10.35;2.30;;;17.40;99.90;;;;;;5117728;27;20465;-71
2023/07/18 00:29:26;;;;;;;13.38;2.00;;;17.40;99.90;;;;;;5133026;27;20058;-71
2023/07/18 00:31:51;;;;;;;13.02;2.20;;;17.40;99.90;;;;;;5126538;27;20108;-71
2023/07/18 00:34:17;;;;;;;14.88;2.25;;;17.30;99.90;;;;;;5135662;27;20073;-71
2023/07/18 00:36:44;;;;;;;12.40;2.30;;;17.30;99.90;;;;;;5135763;27;20023;-72
2023/07/18 00:39:10;;;;;;;12.70;2.47;;;17.20;99.90;;;;;;5135286;27;20020;-72
2023/07/18 00:41:35;;;;;;;14.75;2.10;;;17.20;99.90;;;;;;5135777;27;20106;-70
2023/07/18 00:44:01;;;;;;;11.30;2.08;;;17.20;99.90;;;;;;5125877;27;20463;-71
2023/07/18 00:46:27;;;;;;;8.10;1.75;;;17.20;99.90;;;;;;5121356;27;20028;-71
2023/07/18 00:48:54;;;;;;;11.40;2.35;;;17.20;99.90;;;;;;5121693;27;20019;-71
2023/07/18 00:51:19;;;;;;;11.63;2.22;;;17.20;99.90;;;;;;5133993;27;20120;-70
2023/07/18 00:53:45;;;;;;;7.80;2.00;;;17.20;99.90;;;;;;5135700;27;20531;-71
2023/07/18 00:56:12;;;;;;;11.77;2.13;;;17.10;99.90;;;;;;5135497;27;20058;-71
2023/07/18 00:58:39;;;;;;;13.50;2.58;;;17.10;99.90;;;;;;5135537;27;20084;-71
2023/07/18 01:01:05;;;;;;;9.20;1.90;;;17.10;99.90;;;;;;5135096;27;20106;-71
2023/07/18 01:03:31;;;;;;;11.30;2.17;;;17.00;99.90;;;;;;5135154;27;20543;-71
2023/07/18 01:05:57;;;;;;;12.10;2.30;;;17.00;99.90;;;;;;5135277;27;20513;-71
2023/07/18 01:08:22;;;;;;;9.40;2.15;;;17.00;99.90;;;;;;5134709;27;20026;-70
2023/07/18 01:10:48;;;;;;;8.43;2.10;;;17.00;99.90;;;;;;5134661;27;20019;-71
2023/07/18 01:13:14;;;;;;;12.55;2.30;;;17.00;99.90;;;;;;5135064;27;20025;-70
2023/07/18 01:15:40;;;;;;;13.27;2.60;;;17.10;99.90;;;;;;5134968;27;20101;-70
2023/07/18 01:18:08;;;;;;;15.32;2.53;;;17.10;99.90;;;;;;5134988;27;20428;-70
2023/07/18 01:20:36;;;;;;;13.65;2.60;;;17.00;99.90;;;;;;5129443;27;20027;-70
2023/07/18 01:23:05;;;;;;;10.98;1.83;;;17.00;99.90;;;;;;5134903;27;20395;-71
2023/07/18 01:25:33;;;;;;;10.65;2.28;;;17.00;99.90;;;;;;5134551;27;20079;-71
2023/07/18 01:27:59;;;;;;;17.70;2.50;;;17.00;99.90;;;;;;5134655;27;20038;-71
2023/07/18 01:30:26;;;;;;;15.13;2.35;;;17.00;99.90;;;;;;5125922;27;20029;-72
2023/07/18 01:32:53;;;;;;;10.82;2.15;;;17.00;99.90;;;;;;5121431;27;20018;-71
2023/07/18 01:35:23;;;;;;;12.32;2.00;;;17.00;99.90;;;;;;5133295;27;20144;-71
2023/07/18 01:37:49;;;;;;;15.50;2.40;;;17.00;99.90;;;;;;5130895;27;20031;-71
2023/07/18 01:40:19;;;;;;;6.90;1.90;;;17.00;99.90;;;;;;5125825;27;20058;-71
2023/07/18 01:42:46;;;;;;;6.75;2.20;;;17.00;99.90;;;;;;5124451;27;20039;-71
2023/07/18 01:45:12;;;;;;;13.25;2.20;;;17.00;99.90;;;;;;5130519;27;20024;-71
2023/07/18 01:47:39;;;;;;;8.07;2.00;;;16.90;99.90;;;;;;5134161;27;20030;-71
2023/07/18 01:50:06;;;;;;;7.88;2.38;;;16.90;99.90;;;;;;5134097;27;20390;-71
2023/07/18 01:52:33;;;;;;;8.25;2.05;;;16.90;99.90;;;;;;5114815;27;20044;-72
2023/07/18 01:55:00;;;;;;;8.50;2.17;;;16.90;99.90;;;;;;5127257;27;20472;-71
2023/07/18 01:57:43;;;;;;;7.85;1.88;;;16.90;99.90;;;;;;5133388;27;20372;-71
2023/07/18 02:00:11;;;;;;;11.65;1.85;;;16.90;99.90;;;;;;5126892;27;20495;-71
2023/07/18 02:02:40;;;;;;;8.73;1.95;;;16.90;99.90;;;;;;5133698;27;20019;-71
2023/07/18 02:05:06;;;;;;;10.02;2.30;;;16.90;99.90;;;;;;5133673;27;20468;-72
2023/07/18 02:07:32;;;;;;;8.23;2.20;;;16.80;99.90;;;;;;5113849;27;20030;-71
2023/07/18 02:10:01;;;;;;;9.43;2.40;;;16.80;99.90;;;;;;5114687;27;20371;-71
2023/07/18 02:12:27;;;;;;;10.93;2.35;;;16.80;99.90;;;;;;5133493;27;20046;-72
2023/07/18 02:14:53;;;;;;;11.80;2.40;;;16.80;99.90;;;;;;5133478;27;20034;-71
2023/07/18 02:17:19;;;;;;;9.50;2.30;;;16.80;99.90;;;;;;5124176;27;20023;-71
2023/07/18 02:19:44;;;;;;;9.60;2.60;;;16.80;99.90;;;;;;5123851;27;20069;-71
2023/07/18 02:22:10;;;;;;;13.25;2.97;;;16.80;99.90;;;;;;5133030;27;20098;-71
2023/07/18 02:24:37;;;;;;;8.30;2.63;;;16.80;99.90;;;;;;5130432;27;20027;-71
2023/07/18 02:27:03;;;;;;;12.40;2.90;;;16.80;99.90;;;;;;5130293;27;20011;-71
2023/07/18 02:29:29;;;;;;;10.35;2.30;;;16.80;99.90;;;;;;5132318;27;20795;-71
2023/07/18 02:31:55;;;;;;;13.15;2.80;;;16.80;99.90;;;;;;5133125;27;20015;-71
2023/07/18 02:34:20;;;;;;;9.13;2.28;;;16.70;99.90;;;;;;5133349;27;20034;-71
2023/07/18 02:36:46;;;;;;;9.13;2.30;;;16.70;99.90;;;;;;5133024;27;20050;-71
2023/07/18 02:39:11;;;;;;;9.02;2.45;;;16.60;99.90;;;;;;5132047;27;20031;-72
2023/07/18 02:41:37;;;;;;;8.32;2.00;;;16.60;99.90;;;;;;5132982;27;20978;-71
2023/07/18 02:44:04;;;;;;;12.18;2.80;;;16.60;99.90;;;;;;5132894;27;20019;-71
2023/07/18 02:46:30;;;;;;;7.60;2.20;;;16.60;99.90;;;;;;5129766;27;20080;-71
2023/07/18 02:48:56;;;;;;;7.32;2.25;;;16.50;99.90;;;;;;5129782;27;20027;-71
2023/07/18 02:51:21;;;;;;;8.20;2.20;;;16.50;99.90;;;;;;5130068;27;20154;-71
2023/07/18 02:53:49;;;;;;;9.73;2.47;;;16.50;99.90;;;;;;5132592;27;20072;-71
2023/07/18 02:56:15;;;;;;;12.88;2.83;;;16.50;99.90;;;;;;5127769;27;20035;-71
2023/07/18 02:58:41;;;;;;;10.63;2.60;;;16.40;99.90;;;;;;5129139;27;20086;-71
2023/07/18 03:01:07;;;;;;;11.07;2.30;;;16.40;99.90;;;;;;5124278;27;20023;-71
2023/07/18 03:03:34;;;;;;;11.90;2.63;;;16.40;99.90;;;;;;5131872;27;20035;-72
2023/07/18 03:06:00;;;;;;;9.20;2.28;;;16.30;99.90;;;;;;5128823;27;20030;-72
2023/07/18 03:08:27;;;;;;;6.90;2.30;;;16.30;99.90;;;;;;5128667;27;20023;-72
2023/07/18 03:10:53;;;;;;;9.45;2.42;;;16.30;99.90;;;;;;5128903;27;20019;-71
2023/07/18 03:13:19;;;;;;;6.95;2.35;;;16.30;99.90;;;;;;5128535;27;20035;-71
2023/07/18 03:15:44;;;;;;;9.75;2.78;;;16.30;99.90;;;;;;5123255;27;20090;-71
2023/07/18 03:18:10;;;;;;;11.88;2.53;;;16.20;99.90;;;;;;5101709;27;20030;-72
2023/07/18 03:20:38;;;;;;;9.30;2.35;;;16.20;99.90;;;;;;5127774;27;20030;-71
2023/07/18 03:23:04;;;;;;;6.68;2.50;;;16.20;99.90;;;;;;5129277;27;20027;-72
2023/07/18 03:25:30;;;;;;;8.35;2.65;;;16.20;99.90;;;;;;5132055;27;20024;-72
2023/07/18 03:27:56;;;;;;;6.82;2.60;;;16.20;99.90;;;;;;5132202;27;20015;-71
2023/07/18 03:30:22;;;;;;;9.75;2.40;;;16.20;99.90;;;;;;5132448;27;20094;-71
2023/07/18 03:32:49;;;;;;;9.65;2.75;;;16.10;99.90;;;;;;5131298;28;20024;-71
2023/07/18 03:35:14;;;;;;;7.82;2.20;;;16.10;99.90;;;;;;5125259;28;20061;-71
2023/07/18 03:37:40;;;;;;;10.23;2.45;;;16.10;99.90;;;;;;5130860;28;20047;-71
2023/07/18 03:40:06;;;;;;;9.07;2.88;;;16.10;99.90;;;;;;5125986;28;20107;-72
2023/07/18 03:42:33;;;;;;;7.10;2.35;;;16.10;99.90;;;;;;5122310;28;20020;-71
2023/07/18 03:44:59;;;;;;;7.60;2.45;;;16.00;99.90;;;;;;5099098;28;20035;-72
2023/07/18 03:47:25;;;;;;;13.00;2.78;;;16.00;99.90;;;;;;5132244;28;20038;-71
2023/07/18 03:49:51;;;;;;;10.77;2.72;;;16.00;99.90;;;;;;5132026;28;20023;-71
2023/07/18 03:52:16;;;;;;;7.40;2.63;;;16.00;99.90;;;;;;5129600;28;20050;-71
2023/07/18 03:54:43;;;;;;;9.82;2.53;;;15.90;99.90;;;;;;5132031;28;20476;-71
2023/07/18 03:57:08;;;;;;;7.05;2.58;;;15.90;99.90;;;;;;5113751;28;20099;-71
2023/07/18 03:59:34;;;;;;;7.70;2.60;;;15.90;99.90;;;;;;5132055;28;20484;-70
2023/07/18 04:02:00;;;;;;;14.15;3.25;;;15.90;99.90;;;;;;5130378;28;20024;-70
2023/07/18 04:04:26;;;;;;;10.98;2.85;;;15.90;99.90;;;;;;5131927;28;20411;-72
2023/07/18 04:06:52;;;;;;;10.35;3.22;;;15.80;99.90;;;;;;5128370;28;20023;-71
2023/07/18 04:09:18;;;;;;;8.63;2.83;;;15.80;99.90;;;;;;5122720;28;20098;-72
2023/07/18 04:11:46;;;;;;;13.38;3.60;;;15.80;99.90;;;;;;5131764;28;20068;-72
2023/07/18 04:14:12;;;;;;;8.27;3.05;;;15.80;99.90;;;;;;5131599;28;20034;-71
2023/07/18 04:16:37;;;;;;;10.80;3.35;;;15.80;99.90;;;;;;5131941;28;20023;-71
2023/07/18 04:19:03;;;;;;;10.02;3.40;;;15.80;99.90;;;;;;5131544;28;20076;-71
2023/07/18 04:21:29;;;;;;;12.45;3.60;;;15.80;99.90;;;;;;5128713;28;20380;-71
2023/07/18 04:23:55;;;;;;;15.50;3.72;;;15.80;99.90;;;;;;5134489;27;20032;-71
2023/07/18 04:26:21;;;;;;;11.43;3.10;;;15.80;99.90;;;;;;5136042;27;20087;-71
2023/07/18 04:28:47;;;;;;;10.57;3.58;;;15.80;99.90;;;;;;5135482;27;20084;-70
2023/07/18 04:31:13;;;;;;;10.63;3.28;;;15.90;99.90;;;;;;5135743;27;20363;-70
2023/07/18 04:33:39;;;;;;;15.88;3.90;;;15.80;99.90;;;;;;5135570;27;20019;-72
2023/07/18 04:36:07;;;;;;;15.88;4.68;;;15.90;99.90;;;;;;5116899;27;20023;-71
2023/07/18 04:38:34;;;;;;;14.75;3.67;;;15.90;99.90;;;;;;5134465;27;20011;-71
2023/07/18 04:41:00;;;;;;;10.30;3.55;;;15.90;99.90;;;;;;5135421;27;20678;-71
2023/07/18 04:43:27;;;;;;;10.10;3.90;;;15.90;99.90;;;;;;5127518;27;20027;-71
2023/07/18 04:45:53;;;;;;;13.10;3.85;;;15.90;99.90;;;;;;5135163;27;20027;-71
2023/07/18 04:48:19;;;;;;;12.98;3.78;;;16.00;99.90;;;;;;5134786;27;20022;-71
2023/07/18 04:50:50;;;;;;;13.23;3.90;;;16.00;99.90;;;;;;5129002;27;20057;-71
2023/07/18 04:53:16;;;;;;;15.10;4.43;;;16.00;99.90;;;;;;5134944;27;20140;-76
2023/07/18 04:55:41;;;;;;;15.43;4.25;;;16.00;99.90;;;;;;5123986;27;20065;-75
2023/07/18 04:58:08;;;;;;;14.15;3.80;;;16.00;99.90;;;;;;5134060;27;20023;-75
2023/07/18 05:00:35;;;;;;;18.30;4.43;;;16.00;99.90;;;;;;5116583;27;20019;-75
2023/07/18 05:03:00;;;;;;;12.80;4.13;;;16.10;99.90;;;;;;5134360;27;20363;-75
2023/07/18 05:05:27;;;;;;;10.95;3.97;;;16.10;99.90;;;;;;5134866;27;20069;-74
2023/07/18 05:07:58;;;;;;;12.00;4.57;;;16.10;99.90;;;;;;5099830;28;20161;-74
2023/07/18 05:10:25;;;;;;;17.75;4.70;;;16.20;99.90;;;;;;5133671;27;20019;-74
2023/07/18 05:12:52;;;;;;;15.07;5.00;;;16.20;99.90;;;;;;5133902;27;20072;-74
2023/07/18 05:15:18;;;;;;;16.65;4.90;;;16.20;99.90;;;;;;5134886;27;20023;-74
2023/07/18 05:17:44;;;;;;;16.40;4.65;;;16.20;99.90;;;;;;5135318;27;20461;-74
2023/07/18 05:20:11;;;;;;;12.77;5.15;;;16.20;99.90;;;;;;5131331;27;20035;-74
2023/07/18 05:22:39;;;;;;;16.08;5.30;;;16.30;99.90;;;;;;5132382;27;20019;-74
2023/07/18 05:25:06;;;;;;;10.98;4.70;;;16.30;99.90;;;;;;5125711;27;20077;-74
2023/07/18 05:27:32;;;;;;;14.63;5.40;;;16.30;99.90;;;;;;5134652;27;20019;-74
2023/07/18 05:29:57;;;;;;;20.52;5.60;;;16.30;99.90;;;;;;5115353;27;20083;-74
2023/07/18 05:32:23;;;;;;;17.55;5.10;;;16.40;99.90;;;;;;5123518;27;20072;-74
2023/07/18 05:34:52;;;;;;;15.13;5.40;;;16.40;99.90;;;;;;5130242;27;20031;-74
2023/07/18 05:37:18;;;;;;;22.25;5.40;;;16.50;99.90;;;;;;5134710;27;20088;-74
2023/07/18 05:39:44;;;;;;;17.02;5.60;;;16.50;99.90;;;;;;5131435;27;20433;-74
2023/07/18 05:42:10;;;;;;;15.05;5.28;;;16.60;99.90;;;;;;5134102;27;20054;-75
2023/07/18 05:44:35;;;;;;;23.55;6.03;;;16.70;99.90;;;;;;5135481;27;20538;-75
2023/07/18 05:47:01;;;;;;;21.42;4.95;;;16.80;99.90;;;;;;5134073;27;20058;-75
2023/07/18 05:49:27;;;;;;;21.23;5.72;;;16.80;99.90;;;;;;5134875;27;20019;-75
2023/07/18 05:51:53;;;;;;;18.00;5.82;;;17.00;99.90;;;;;;5134229;27;20407;-75
2023/07/18 05:54:19;;;;;;;16.50;6.30;;;17.00;99.90;;;;;;5133372;27;20197;-75
2023/07/18 05:56:44;;;;;;;22.05;7.85;;;17.00;99.90;;;;;;5133605;27;20460;-75
2023/07/18 05:59:10;;;;;;;31.58;8.98;;;17.10;99.90;;;;;;5133924;27;20019;-75
2023/07/18 06:01:36;;;;;;;25.73;9.07;;;17.20;99.90;;;;;;5129906;27;20409;-76
2023/07/18 06:04:01;;;;;;;32.50;10.38;;;17.20;99.90;;;;;;5134650;27;20019;-76
2023/07/18 06:06:27;;;;;;;31.58;9.65;;;17.30;99.90;;;;;;5134624;27;20491;-76
2023/07/18 06:08:54;;;;;;;32.25;11.05;;;17.40;99.90;;;;;;5134348;27;20380;-76
2023/07/18 06:11:20;;;;;;;32.85;10.93;;;17.40;99.90;;;;;;5127019;27;20020;-71
2023/07/18 06:13:46;;;;;;;25.38;9.93;;;17.40;99.90;;;;;;5132414;27;20027;-71
2023/07/18 06:16:11;;;;;;;35.92;11.63;;;17.40;99.90;;;;;;5126623;27;20019;-71
2023/07/18 06:18:37;;;;;;;33.55;12.20;;;17.40;99.90;;;;;;5133242;27;20028;-72
2023/07/18 06:21:03;;;;;;;31.60;12.65;;;17.50;99.90;;;;;;5130370;27;20011;-71
2023/07/18 06:23:30;;;;;;;31.50;12.48;;;17.50;99.90;;;;;;5133223;27;20031;-72
2023/07/18 06:25:55;;;;;;;33.08;11.95;;;17.50;99.90;;;;;;5133404;27;20376;-72
2023/07/18 06:28:21;;;;;;;33.83;15.32;;;17.50;99.90;;;;;;5133078;27;20113;-72
2023/07/18 06:30:50;;;;;;;34.90;15.40;;;17.60;99.90;;;;;;5133370;27;20023;-72
2023/07/18 06:33:19;;;;;;;29.27;15.65;;;17.60;99.90;;;;;;5133465;27;20409;-72
2023/07/18 06:35:51;;;;;;;38.25;15.18;;;17.60;99.90;;;;;;5129864;27;20011;-72
2023/07/18 06:38:17;;;;;;;33.25;15.52;;;17.70;99.90;;;;;;5114608;27;20715;-72
2023/07/18 06:40:45;;;;;;;35.75;16.65;;;17.80;99.90;;;;;;5123417;27;20046;-72
2023/07/18 06:43:11;;;;;;;34.50;18.10;;;17.90;99.90;;;;;;5129355;27;20019;-73
2023/07/18 06:45:37;;;;;;;34.42;18.08;;;18.00;99.90;;;;;;5125669;27;20371;-71
2023/07/18 06:48:03;;;;;;;36.72;17.27;;;18.00;99.90;;;;;;5131257;27;20735;-71
2023/07/18 06:50:29;;;;;;;36.08;16.88;;;17.90;99.90;;;;;;5104402;27;20031;-71
2023/07/18 06:52:55;;;;;;;35.40;17.77;;;18.00;99.90;;;;;;5132512;27;20171;-71
2023/07/18 06:55:21;;;;;;;39.72;18.23;;;18.10;99.90;;;;;;5124762;27;20102;-71
2023/07/18 06:57:46;;;;;;;33.17;18.10;;;18.10;99.90;;;;;;5124695;27;20030;-71
2023/07/18 07:00:12;;;;;;;43.78;18.15;;;18.10;99.90;;;;;;5128514;27;20072;-71
2023/07/18 07:02:38;;;;;;;33.92;16.98;;;18.10;99.90;;;;;;5125698;27;20437;-71
2023/07/18 07:05:04;;;;;;;33.75;16.67;;;18.20;99.90;;;;;;5123411;27;20019;-71
2023/07/18 07:07:30;;;;;;;36.00;17.55;;;18.20;99.90;;;;;;5132380;27;20027;-71
2023/07/18 07:09:55;;;;;;;32.85;16.77;;;18.20;99.90;;;;;;5130823;27;20092;-72
2023/07/18 07:12:21;;;;;;;42.33;19.00;;;18.30;99.90;;;;;;5132112;27;20016;-72
2023/07/18 07:14:47;;;;;;;35.50;18.55;;;18.30;99.90;;;;;;5131836;27;20383;-72
2023/07/18 07:17:12;;;;;;;41.65;18.85;;;18.30;99.90;;;;;;5132450;27;20023;-72
2023/07/18 07:19:39;;;;;;;36.15;18.05;;;18.40;99.90;;;;;;5132906;27;20400;-71
2023/07/18 07:22:05;;;;;;;28.73;17.65;;;18.50;99.90;;;;;;5132619;27;20015;-71
2023/07/18 07:24:31;;;;;;;36.25;18.02;;;18.60;99.90;;;;;;5113733;27;20442;-72
2023/07/18 07:26:56;;;;;;;41.45;18.55;;;18.50;99.90;;;;;;5132541;27;20098;-71
2023/07/18 07:29:22;;;;;;;48.15;22.58;;;18.60;99.90;;;;;;5132108;27;20475;-71
2023/07/18 07:31:48;;;;;;;40.67;23.15;;;18.60;99.90;;;;;;5131965;27;20019;-71
2023/07/18 07:34:13;;;;;;;37.90;21.08;;;18.70;99.90;;;;;;5132400;28;20073;-71
2023/07/18 07:36:39;;;;;;;40.75;21.48;;;18.70;99.90;;;;;;5132301;28;20098;-71
2023/07/18 07:39:04;;;;;;;35.67;20.60;;;18.90;99.90;;;;;;5130458;28;20053;-71
2023/07/18 07:41:30;;;;;;;43.10;20.65;;;18.90;99.90;;;;;;5130534;28;20468;-71
2023/07/18 07:43:56;;;;;;;34.63;20.85;;;19.00;99.90;;;;;;5132983;28;20038;-71
2023/07/18 07:46:21;;;;;;;37.65;22.42;;;19.20;99.90;;;;;;5132210;28;20015;-71
2023/07/18 07:48:47;;;;;;;39.30;23.13;;;19.20;99.90;;;;;;5126143;28;20030;-71
2023/07/18 07:51:15;;;;;;;40.08;22.48;;;19.30;99.90;;;;;;5125411;28;20117;-71
2023/07/18 07:53:41;;;;;;;34.45;20.92;;;19.30;99.90;;;;;;5131621;28;20119;-71
2023/07/18 07:56:07;;;;;;;38.88;22.08;;;19.40;99.90;;;;;;5129481;28;20016;-71
2023/07/18 07:58:33;;;;;;;35.45;21.00;;;19.50;99.90;;;;;;5124494;27;20027;-70
2023/07/18 08:00:59;;;;;;;35.97;20.42;;;19.60;99.90;;;;;;5132106;27;20031;-71
2023/07/18 08:03:24;;;;;;;34.10;18.90;;;19.70;99.90;;;;;;5128053;27;20034;-71
2023/07/18 08:05:50;;;;;;;37.05;20.92;;;19.80;99.90;;;;;;5135361;27;20619;-71
2023/07/18 08:08:17;;;;;;;36.17;20.58;;;19.80;99.90;;;;;;5136310;27;20027;-71
2023/07/18 08:10:43;;;;;;;33.33;18.98;;;19.90;99.90;;;;;;5135920;27;20038;-71
2023/07/18 08:13:10;;;;;;;33.58;20.25;;;20.00;99.90;;;;;;5136199;27;20451;-71
2023/07/18 08:15:35;;;;;;;34.05;21.52;;;20.20;99.90;;;;;;5117406;27;20026;-71
2023/07/18 08:18:01;;;;;;;38.65;22.08;;;20.20;99.90;;;;;;5136049;27;20023;-71
2023/07/18 08:20:27;;;;;;;33.55;21.73;;;20.30;99.90;;;;;;5136132;27;20027;-71
2023/07/18 08:22:54;;;;;;;35.03;20.50;;;20.30;99.90;;;;;;5135359;27;20022;-71
2023/07/18 08:25:20;;;;;;;33.00;22.13;;;20.30;99.90;;;;;;5126152;27;20131;-71
2023/07/18 08:27:46;;;;;;;30.90;19.35;;;20.20;99.90;;;;;;5102373;27;20507;-71
2023/07/18 08:30:11;;;;;;;35.47;20.20;;;20.30;99.90;;;;;;5106926;27;20033;-71
2023/07/18 08:32:37;;;;;;;33.40;19.70;;;20.40;99.90;;;;;;5135657;27;20015;-70
2023/07/18 08:35:05;;;;;;;27.92;17.98;;;20.40;99.90;;;;;;5132448;27;20019;-71
2023/07/18 08:37:30;;;;;;;30.27;18.70;;;20.20;99.90;;;;;;5135471;27;20734;-70
2023/07/18 08:39:56;;;;;;;32.55;19.45;;;20.40;99.90;;;;;;5135509;27;20023;-70
2023/07/18 08:42:26;;;;;;;35.08;19.55;;;20.40;99.90;;;;;;5134748;27;20023;-69
2023/07/18 08:44:53;;;;;;;28.40;17.75;;;20.50;99.90;;;;;;5132829;27;20406;-70
2023/07/18 08:47:25;;;;;;;30.98;18.50;;;20.60;99.90;;;;;;5135260;27;20089;-70
2023/07/18 08:49:51;;;;;;;32.33;18.88;;;20.70;99.90;;;;;;5130042;27;20502;-70
2023/07/18 08:52:17;;;;;;;30.48;19.25;;;20.90;99.90;;;;;;5129175;27;20492;-70
2023/07/18 08:54:42;;;;;;;29.58;18.15;;;20.90;99.90;;;;;;5125724;27;20035;-70
2023/07/18 08:57:08;;;;;;;30.42;16.45;;;21.00;99.90;;;;;;5134521;27;20031;-70
2023/07/18 08:59:35;;;;;;;31.08;15.98;;;21.20;99.90;;;;;;5129665;27;20091;-70
2023/07/18 09:02:00;;;;;;;27.73;16.08;;;21.30;99.90;;;;;;5135619;27;20015;-70
2023/07/18 09:04:26;;;;;;;24.63;16.55;;;21.30;99.90;;;;;;5134653;27;20437;-70
2023/07/18 09:06:59;;;;;;;29.17;14.73;;;21.40;99.90;;;;;;5134089;27;20029;-70
2023/07/18 09:09:25;;;;;;;29.80;15.85;;;21.50;99.90;;;;;;5120917;27;20492;-70
2023/07/18 09:11:55;;;;;;;29.83;15.65;;;21.60;99.90;;;;;;5109523;27;20598;-70
2023/07/18 09:14:29;;;;;;;27.33;14.68;;;21.70;99.90;;;;;;5135338;27;20015;-69
2023/07/18 09:16:56;;;;;;;27.80;14.90;;;21.80;99.90;;;;;;5129920;27;20027;-70
2023/07/18 09:19:42;;;;;;;26.10;13.20;;;21.80;99.90;;;;;;5134937;27;20022;-69
2023/07/18 09:22:13;;;;;;;24.48;13.38;;;21.80;99.90;;;;;;5134915;27;20046;-70
2023/07/18 09:24:40;;;;;;;22.42;12.02;;;21.90;99.90;;;;;;5122203;27;20030;-71
2023/07/18 09:27:08;;;;;;;26.13;11.40;;;21.90;99.90;;;;;;5125181;27;20023;-74
2023/07/18 09:29:34;;;;;;;23.65;10.05;;;22.10;99.90;;;;;;5134814;27;20389;-71
2023/07/18 09:32:00;;;;;;;18.48;8.98;;;22.20;99.90;;;;;;5135760;27;20023;-70
2023/07/18 09:34:32;;;;;;;21.67;10.45;;;22.40;99.90;;;;;;5124751;27;20031;-73
2023/07/18 09:37:00;;;;;;;22.08;8.55;;;22.50;99.90;;;;;;5133078;27;20019;-73
2023/07/18 09:39:26;;;;;;;19.55;8.63;;;22.40;99.90;;;;;;5135789;27;20027;-73
2023/07/18 09:41:53;;;;;;;17.10;7.25;;;22.50;99.90;;;;;;5135648;27;20022;-73
2023/07/18 09:44:19;;;;;;;18.80;7.72;;;22.50;99.90;;;;;;5135375;27;20044;-74
2023/07/18 09:46:45;;;;;;;17.77;7.60;;;22.70;99.90;;;;;;5135439;27;20031;-72
2023/07/18 09:49:11;;;;;;;13.52;6.13;;;22.80;99.90;;;;;;5134696;27;20063;-72
2023/07/18 09:51:40;;;;;;;17.88;5.97;;;22.80;99.90;;;;;;5134175;27;20043;-71
2023/07/18 09:54:09;;;;;;;15.80;7.28;;;23.00;99.90;;;;;;5133240;27;20030;-72
2023/07/18 09:56:39;;;;;;;21.80;7.60;;;23.10;99.90;;;;;;5122519;27;20019;-72
2023/07/18 09:59:08;;;;;;;16.08;6.70;;;23.20;99.90;;;;;;5134404;27;20030;-71
2023/07/18 10:01:34;;;;;;;13.07;5.65;;;23.40;99.90;;;;;;5135308;27;20031;-70
2023/07/18 10:04:00;;;;;;;15.63;5.40;;;23.50;99.90;;;;;;5134021;27;20031;-71
2023/07/18 10:06:27;;;;;;;16.90;6.03;;;23.50;99.90;;;;;;5134746;27;20062;-74
2023/07/18 10:08:54;;;;;;;21.23;7.40;;;23.70;99.90;;;;;;5129609;27;20015;-74
2023/07/18 10:11:20;;;;;;;15.38;6.05;;;23.70;99.90;;;;;;5124658;27;20102;-72
2023/07/18 10:13:54;;;;;;;13.20;5.75;;;23.70;99.90;;;;;;5129258;27;20080;-72
2023/07/18 10:16:20;;;;;;;19.38;6.55;;;23.70;99.90;;;;;;5135248;27;20023;-72
2023/07/18 10:18:50;;;;;;;17.02;6.05;;;23.70;99.90;;;;;;5133790;27;20103;-72
2023/07/18 10:21:31;;;;;;;16.75;5.18;;;23.70;99.90;;;;;;5134700;27;20038;-73
2023/07/18 10:23:58;;;;;;;13.48;5.90;;;23.90;99.90;;;;;;5134477;27;20030;-72
2023/07/18 10:26:33;;;;;;;15.93;5.57;;;23.90;99.90;;;;;;5127140;27;20027;-72
2023/07/18 10:29:03;;;;;;;12.55;5.22;;;24.10;99.90;;;;;;5129025;27;20022;-72
2023/07/18 10:31:34;;;;;;;14.00;5.45;;;24.20;99.90;;;;;;5121436;27;20012;-72
2023/07/18 10:34:06;;;;;;;21.85;6.13;;;24.20;99.90;;;;;;5127618;27;20106;-72
2023/07/18 10:36:32;;;;;;;13.40;4.45;;;24.30;99.90;;;;;;5127744;27;20042;-72
2023/07/18 10:38:57;;;;;;;15.60;4.13;;;24.30;99.90;;;;;;5134118;27;20369;-72
2023/07/18 10:41:23;;;;;;;12.00;3.38;;;24.40;99.90;;;;;;5120511;27;20024;-72
2023/07/18 10:43:48;;;;;;;10.38;3.63;;;24.30;99.90;;;;;;5134523;27;20027;-72
2023/07/18 10:46:14;;;;;;;11.20;3.70;;;24.40;99.90;;;;;;5133870;27;20459;-73
2023/07/18 10:48:48;;;;;;;12.10;3.60;;;24.60;99.90;;;;;;5133755;27;20060;-72
2023/07/18 10:51:14;;;;;;;10.32;3.15;;;24.80;99.90;;;;;;5124724;27;20050;-73
2023/07/18 10:53:40;;;;;;;10.30;2.90;;;24.90;99.90;;;;;;5113963;27;20379;-72
2023/07/18 10:56:06;;;;;;;8.95;2.88;;;25.00;99.90;;;;;;5104868;27;20023;-73
2023/07/18 10:58:32;;;;;;;12.70;2.95;;;25.10;99.60;;;;;;5120987;27;20024;-73
2023/07/18 11:00:58;;;;;;;13.35;3.13;;;25.30;99.00;;;;;;5134820;27;20054;-73
2023/07/18 11:03:28;;;;;;;9.95;2.80;;;25.40;98.60;;;;;;5127564;27;20098;-73
2023/07/18 11:05:54;;;;;;;10.05;2.75;;;25.40;98.20;;;;;;5134626;27;20457;-73
2023/07/18 11:08:27;;;;;;;10.10;3.08;;;25.40;97.80;;;;;;5133680;27;20043;-74
2023/07/18 11:11:00;;;;;;;11.80;2.88;;;25.60;97.60;;;;;;5133561;27;20019;-73
2023/07/18 11:13:31;;;;;;;12.45;2.58;;;25.70;97.10;;;;;;5133493;27;20019;-73
2023/07/18 11:16:17;;;;;;;9.88;2.83;;;25.80;96.70;;;;;;5133214;27;20895;-72
2023/07/18 11:18:50;;;;;;;10.45;2.45;;;25.90;95.80;;;;;;5128715;27;20035;-71
2023/07/18 11:21:19;;;;;;;9.88;2.50;;;25.80;95.60;;;;;;5133051;27;20026;-71
2023/07/18 11:23:46;;;;;;;7.43;2.70;;;25.90;95.30;;;;;;5133382;27;20071;-72
2023/07/18 11:26:17;;;;;;;10.95;2.63;;;26.10;94.60;;;;;;5132920;27;20071;-72
2023/07/18 11:28:48;;;;;;;7.20;2.13;;;26.20;94.70;;;;;;5132935;27;20057;-72
2023/07/18 11:31:31;;;;;;;7.43;1.80;;;26.30;93.90;;;;;;5122064;27;20019;-71
2023/07/18 11:33:58;;;;;;;6.13;1.75;;;26.20;92.30;;;;;;5123430;27;20030;-72
2023/07/18 11:36:30;;;;;;;8.85;1.58;;;26.10;91.90;;;;;;5131926;28;20027;-71
2023/07/18 11:38:58;;;;;;;7.40;1.80;;;25.90;91.60;;;;;;5105326;28;20103;-72
2023/07/18 11:41:39;;;;;;;7.00;1.70;;;25.90;91.70;;;;;;5130652;28;20034;-72
2023/07/18 11:44:08;;;;;;;4.80;1.30;;;26.00;91.00;;;;;;5132154;28;20027;-71
2023/07/18 11:46:37;;;;;;;4.55;1.30;;;26.10;90.00;;;;;;5099736;28;20038;-71
2023/07/18 11:49:03;;;;;;;4.63;1.40;;;26.20;88.20;;;;;;5122932;28;20026;-72
2023/07/18 11:51:32;;;;;;;9.00;1.42;;;26.20;87.40;;;;;;5130887;28;20491;-72
2023/07/18 11:53:59;;;;;;;5.25;1.50;;;26.40;87.50;;;;;;5114305;28;20068;-73
2023/07/18 11:56:25;;;;;;;5.88;1.50;;;26.40;86.50;;;;;;5133018;28;20023;-73
2023/07/18 11:58:50;;;;;;;6.18;1.42;;;26.50;86.30;;;;;;5129590;28;20452;-73
2023/07/18 12:01:16;;;;;;;6.10;1.40;;;26.60;85.40;;;;;;5124045;28;20021;-72
2023/07/18 12:03:41;;;;;;;6.25;1.60;;;26.50;84.50;;;;;;5133027;28;20438;-72
2023/07/18 12:06:07;;;;;;;8.15;1.33;;;26.50;84.80;;;;;;5130593;28;20035;-73
2023/07/18 12:08:32;;;;;;;6.55;1.60;;;26.70;83.30;;;;;;5133500;28;20023;-72
2023/07/18 12:10:58;;;;;;;6.07;1.50;;;27.00;82.00;;;;;;5128596;28;20015;-72
2023/07/18 12:13:25;;;;;;;4.65;1.50;;;27.10;80.30;;;;;;5131079;28;20051;-72
2023/07/18 12:15:50;;;;;;;6.53;1.58;;;27.20;79.40;;;;;;5124984;28;20027;-72
2023/07/18 12:18:16;;;;;;;8.95;1.85;;;27.10;79.70;;;;;;5132490;28;20023;-72
2023/07/18 12:20:42;;;;;;;6.50;1.40;;;27.00;79.40;;;;;;5107263;28;20023;-72
2023/07/18 12:23:07;;;;;;;3.40;1.20;;;26.90;79.20;;;;;;5132819;28;20047;-73
2023/07/18 12:25:33;;;;;;;4.18;1.30;;;26.90;78.60;;;;;;5132325;28;20532;-73
2023/07/18 12:28:00;;;;;;;8.55;1.80;;;27.00;78.00;;;;;;5129196;28;20478;-73
2023/07/18 12:30:27;;;;;;;6.97;1.35;;;27.20;77.90;;;;;;5130086;28;20023;-72
2023/07/18 12:32:53;;;;;;;5.68;1.60;;;27.50;77.30;;;;;;5103136;28;20012;-72